createdAt,value
2023-12-24T00:01:09.449Z,101863.41
2023-12-24T00:03:41.370Z,101871.09
2023-12-24T00:06:12.660Z,101884.72
2023-12-24T00:08:43.214Z,101872.94
2023-12-24T00:11:13.760Z,101886.13
2023-12-24T00:13:44.374Z,101887.19
2023-12-24T00:16:14.843Z,101888.00
2023-12-24T00:18:45.486Z,101887.41
2023-12-24T00:21:16.940Z,101894.28
2023-12-24T00:23:49.067Z,101904.19
2023-12-24T00:26:20.626Z,101908.78
2023-12-24T00:28:53.044Z,101912.84
2023-12-24T00:31:23.653Z,101914.25
2023-12-24T00:33:54.197Z,101914.53
2023-12-24T00:36:24.867Z,101909.34
2023-12-24T00:38:55.967Z,101923.53
2023-12-24T00:41:26.700Z,101929.88
2023-12-24T00:43:57.214Z,101927.59
2023-12-24T00:46:28.207Z,101937.44
2023-12-24T00:48:58.765Z,101936.06
2023-12-24T00:51:29.482Z,101942.69
2023-12-24T00:54:00.118Z,101943.50
2023-12-24T00:56:30.888Z,101938.97
2023-12-24T00:59:01.401Z,101946.91
2023-12-24T01:01:32.183Z,101938.63
2023-12-24T01:04:02.799Z,101947.63
2023-12-24T01:06:33.488Z,101957.66
2023-12-24T01:09:04.093Z,101965.16
2023-12-24T01:11:34.894Z,101969.94
2023-12-24T01:14:05.480Z,101982.13
2023-12-24T01:16:36.257Z,101989.31
2023-12-24T01:19:06.841Z,101997.09
2023-12-24T01:21:37.873Z,102000.41
2023-12-24T01:24:09.576Z,102004.44
2023-12-24T01:26:40.703Z,102002.78
2023-12-24T01:29:11.319Z,101997.88
2023-12-24T01:31:43.446Z,102001.94
2023-12-24T01:34:14.086Z,101996.28
2023-12-24T01:36:44.865Z,102001.47
2023-12-24T01:39:16.748Z,102000.16
2023-12-24T01:41:50.119Z,102001.81
2023-12-24T01:44:20.738Z,102005.38
2023-12-24T01:46:51.484Z,102001.25
2023-12-24T01:49:22.088Z,102013.34
2023-12-24T01:51:53.626Z,102009.50
2023-12-24T01:54:25.259Z,102022.47
2023-12-24T01:56:55.919Z,102024.72
2023-12-24T01:59:27.114Z,102019.44
2023-12-24T02:01:58.085Z,102026.03
2023-12-24T02:04:28.709Z,102032.13
2023-12-24T02:06:59.537Z,102028.81
2023-12-24T02:09:30.269Z,102027.50
2023-12-24T02:12:00.939Z,102027.22
2023-12-24T02:14:31.695Z,102034.94
2023-12-24T02:17:03.835Z,102029.94
2023-12-24T02:19:34.784Z,102028.38
2023-12-24T02:22:05.540Z,102028.09
2023-12-24T02:24:36.351Z,102026.19
2023-12-24T02:27:30.106Z,102028.44
2023-12-24T02:30:07.874Z,102037.19
2023-12-24T02:32:41.743Z,102034.44
2023-12-24T02:35:14.255Z,102038.34
2023-12-24T02:37:46.435Z,102034.50
2023-12-24T02:40:17.227Z,102035.06
2023-12-24T02:42:48.561Z,102038.34
2023-12-24T02:45:19.390Z,102046.63
2023-12-24T02:47:50.344Z,102045.53
2023-12-24T02:50:23.215Z,102042.03
2023-12-24T02:52:54.298Z,102052.34
2023-12-24T02:55:27.061Z,102054.34
2023-12-24T02:57:57.536Z,102053.00
2023-12-24T03:00:28.245Z,102048.34
2023-12-24T03:02:58.809Z,102049.66
2023-12-24T03:05:29.516Z,102049.94
2023-12-24T03:08:00.201Z,102053.75
2023-12-24T03:10:30.769Z,102041.41
2023-12-24T03:13:01.375Z,102039.41
2023-12-24T03:15:31.918Z,102039.41
2023-12-24T03:18:04.035Z,102042.44
2023-12-24T03:20:34.717Z,102034.50
2023-12-24T03:23:05.346Z,102036.94
2023-12-24T03:25:35.917Z,102041.56
2023-12-24T03:28:06.578Z,102033.22
2023-12-24T03:30:37.101Z,102042.31
2023-12-24T03:33:07.878Z,102040.09
2023-12-24T03:35:38.582Z,102037.75
2023-12-24T03:38:09.340Z,102035.88
2023-12-24T03:40:40.149Z,102034.72
2023-12-24T03:43:10.959Z,102036.66
2023-12-24T03:45:41.513Z,102031.72
2023-12-24T03:48:15.571Z,102028.75
2023-12-24T03:50:46.794Z,102024.59
2023-12-24T03:53:17.502Z,102022.16
2023-12-24T03:55:48.280Z,102021.56
2023-12-24T03:58:18.976Z,102025.75
2023-12-24T04:00:49.741Z,102022.16
2023-12-24T04:03:20.381Z,102020.25
2023-12-24T04:05:51.253Z,102016.47
2023-12-24T04:08:21.983Z,102019.16
2023-12-24T04:10:52.562Z,102020.31
2023-12-24T04:13:23.293Z,102011.78
2023-12-24T04:15:53.817Z,102016.25
2023-12-24T04:18:24.669Z,102012.09
2023-12-24T04:20:55.633Z,102011.28
2023-12-24T04:23:26.475Z,102004.41
2023-12-24T04:25:57.127Z,102011.00
2023-12-24T04:28:28.751Z,102007.56
2023-12-24T04:30:59.939Z,101998.25
2023-12-24T04:33:43.172Z,101992.53
2023-12-24T04:36:34.226Z,101991.72
2023-12-24T04:39:28.094Z,101986.00
2023-12-24T04:42:19.090Z,101975.50
2023-12-24T04:44:49.786Z,101974.72
2023-12-24T04:47:20.305Z,101962.34
2023-12-24T04:49:51.469Z,101955.47
2023-12-24T04:52:22.555Z,101954.94
2023-12-24T04:54:53.141Z,101957.72
2023-12-24T04:57:24.431Z,101950.03
2023-12-24T05:00:14.542Z,101940.78
2023-12-24T05:02:49.095Z,101929.28
2023-12-24T05:05:20.353Z,101944.34
2023-12-24T05:07:51.041Z,101922.69
2023-12-24T05:10:21.709Z,101918.84
2023-12-24T05:12:53.666Z,101914.69
2023-12-24T05:15:26.501Z,101902.34
2023-12-24T05:17:58.596Z,101895.75
2023-12-24T05:20:29.423Z,101889.75
2023-12-24T05:23:01.591Z,101894.69
2023-12-24T05:25:32.221Z,101880.41
2023-12-24T05:28:02.750Z,101880.41
2023-12-24T05:30:33.266Z,101874.59
2023-12-24T05:33:04.066Z,101874.09
2023-12-24T05:35:35.046Z,101873.28
2023-12-24T05:38:06.106Z,101870.53
2023-12-24T05:40:36.766Z,101861.44
2023-12-24T05:43:07.310Z,101869.97
2023-12-24T05:45:38.791Z,101851.34
2023-12-24T05:48:09.888Z,101856.28
2023-12-24T05:50:40.370Z,101840.91
2023-12-24T05:53:11.005Z,101835.41
2023-12-24T05:55:41.517Z,101822.81
2023-12-24T05:58:12.065Z,101819.25
2023-12-24T06:00:42.712Z,101809.06
2023-12-24T06:03:13.350Z,101811.81
2023-12-24T06:05:44.101Z,101812.34
2023-12-24T06:08:20.902Z,101805.75
2023-12-24T06:10:51.497Z,101802.50
2023-12-24T06:13:22.073Z,101785.44
2023-12-24T06:15:52.834Z,101786.81
2023-12-24T06:18:23.563Z,101779.97
2023-12-24T06:20:54.314Z,101784.94
2023-12-24T06:23:24.835Z,101773.13
2023-12-24T06:25:55.785Z,101765.69
2023-12-24T06:28:26.137Z,101763.75
2023-12-24T06:30:56.871Z,101761.31
2023-12-24T12:13:01.388Z,101761.31
2023-12-24T12:15:32.056Z,101762.94
2023-12-24T12:18:02.665Z,101771.75
2023-12-24T12:20:34.277Z,101770.09
2023-12-24T12:23:05.192Z,101765.44
2023-12-24T12:25:35.876Z,101759.94
2023-12-24T12:28:07.271Z,101761.03
2023-12-24T12:30:37.558Z,101761.59
2023-12-24T12:33:08.707Z,101769.03
2023-12-24T12:35:39.535Z,101774.50
2023-12-24T12:38:10.351Z,101776.44
2023-12-24T12:40:46.985Z,101777.25
2023-12-24T12:43:20.917Z,101789.91
2023-12-24T12:45:53.038Z,101792.41
2023-12-24T12:48:24.488Z,101788.81
2023-12-24T12:50:55.519Z,101799.81
2023-12-24T12:53:30.174Z,101806.69
2023-12-24T12:56:07.512Z,101810.81
2023-12-24T12:58:38.203Z,101818.50
2023-12-24T13:01:09.224Z,101825.38
2023-12-24T13:03:42.676Z,101830.31
2023-12-24T13:06:15.635Z,101830.06
2023-12-24T13:08:46.416Z,101827.31
2023-12-24T13:11:17.355Z,101840.75
2023-12-24T13:13:47.838Z,101836.06
2023-12-24T13:16:18.492Z,101841.56
2023-12-24T13:18:49.229Z,101840.75
2023-12-24T13:21:19.832Z,101844.31
2023-12-24T13:23:52.271Z,101845.16
2023-12-24T13:26:28.308Z,101843.50
2023-12-24T13:29:01.902Z,101845.16
2023-12-24T13:31:33.223Z,101849.00
2023-12-24T13:34:03.892Z,101843.78
2023-12-24T13:36:34.640Z,101838.28
2023-12-24T13:39:05.122Z,101841.03
2023-12-24T13:41:36.532Z,101846.81
2023-12-24T13:44:07.443Z,101846.53
2023-12-24T13:46:38.041Z,101837.72
2023-12-24T13:49:11.611Z,101845.44
2023-12-24T13:51:42.476Z,101846.28
2023-12-24T13:54:13.325Z,101850.38
2023-12-24T13:56:43.988Z,101855.03
2023-12-24T13:59:14.815Z,101851.50
2023-12-24T14:01:45.349Z,101853.69
2023-12-24T14:04:16.212Z,101851.78
2023-12-24T14:06:46.870Z,101855.34
2023-12-24T14:09:17.374Z,101850.94
2023-12-24T14:11:47.964Z,101860.84
2023-12-24T14:14:18.664Z,101862.47
2023-12-24T14:16:49.655Z,101863.59
2023-12-24T14:19:20.920Z,101866.34
2023-12-24T14:21:51.258Z,101861.69
2023-12-24T14:24:22.103Z,101862.78
2023-12-24T14:26:52.805Z,101869.34
2023-12-24T14:29:23.396Z,101870.19
2023-12-24T14:31:54.064Z,101866.88
2023-12-24T14:34:24.823Z,101871.53
2023-12-24T14:36:55.443Z,101878.44
2023-12-24T14:39:26.483Z,101879.78
2023-12-24T14:41:57.415Z,101890.53
2023-12-24T14:44:27.995Z,101888.59
2023-12-24T14:46:58.714Z,101887.22
2023-12-24T14:49:30.367Z,101885.56
2023-12-24T14:52:01.239Z,101899.88
2023-12-24T14:54:31.819Z,101897.41
2023-12-24T14:57:02.787Z,101903.19
2023-12-24T14:59:33.366Z,101904.28
2023-12-24T15:02:04.479Z,101908.69
2023-12-24T15:04:35.068Z,101900.97
2023-12-24T15:07:06.806Z,101897.69
2023-12-24T15:09:37.053Z,101899.34
2023-12-24T15:12:07.968Z,101894.38
2023-12-24T15:14:38.800Z,101901.53
2023-12-24T15:17:09.465Z,101899.31
2023-12-24T15:19:40.010Z,101897.69
2023-12-24T15:22:10.764Z,101899.03
2023-12-24T15:24:41.594Z,101898.22
2023-12-24T15:27:12.199Z,101901.53
2023-12-24T15:29:42.818Z,101897.66
2023-12-24T15:32:13.609Z,101902.06
2023-12-24T15:34:44.035Z,101896.31
2023-12-24T15:37:15.190Z,101888.31
2023-12-24T15:39:45.806Z,101892.16
2023-12-24T15:42:17.513Z,101889.69
2023-12-24T15:44:48.120Z,101891.63
2023-12-24T15:47:18.747Z,101889.41
2023-12-24T15:49:52.587Z,101887.22
2023-12-24T15:52:24.921Z,101885.56
2023-12-24T15:54:55.687Z,101885.56
2023-12-24T15:57:26.220Z,101888.31
2023-12-24T15:59:56.760Z,101883.66
2023-12-24T16:02:27.325Z,101882.81
2023-12-24T16:04:57.977Z,101889.69
2023-12-24T16:07:28.625Z,101873.47
2023-12-24T16:09:59.301Z,101875.41
2023-12-24T16:12:29.866Z,101875.13
2023-12-24T16:15:00.651Z,101876.78
2023-12-24T16:17:31.197Z,101871.28
2023-12-24T16:20:01.892Z,101870.44
2023-12-24T16:22:32.411Z,101866.88
2023-12-24T16:25:03.033Z,101867.16
2023-12-24T16:27:36.877Z,101871.28
2023-12-24T16:30:11.579Z,101871.28
2023-12-24T16:32:42.331Z,101869.34
2023-12-24T16:35:13.781Z,101862.50
2023-12-24T16:37:47.206Z,101855.34
2023-12-24T16:40:17.989Z,101847.91
2023-12-24T16:42:50.815Z,101843.50
2023-12-24T16:45:21.869Z,101842.97
2023-12-24T16:47:53.361Z,101843.81
2023-12-24T16:50:24.237Z,101833.06
2023-12-24T16:52:55.007Z,101823.44
2023-12-24T16:55:25.909Z,101826.47
2023-12-24T16:57:56.433Z,101822.34
2023-12-24T17:00:27.455Z,101806.13
2023-12-24T17:02:58.609Z,101816.31
2023-12-24T17:05:29.671Z,101814.13
2023-12-24T17:08:00.320Z,101806.41
2023-12-24T17:10:30.920Z,101806.13
2023-12-24T17:13:01.675Z,101806.97
2023-12-24T17:15:32.380Z,101816.56
2023-12-24T17:18:03.098Z,101809.41
2023-12-24T17:20:33.940Z,101812.16
2023-12-24T17:23:04.812Z,101817.41
2023-12-24T17:25:35.385Z,101822.06
2023-12-24T17:28:06.276Z,101819.59
2023-12-24T17:30:36.962Z,101819.59
2023-12-24T17:33:08.358Z,101826.75
2023-12-24T17:35:39.401Z,101822.91
2023-12-24T17:38:10.337Z,101819.59
2023-12-24T17:40:41.038Z,101823.72
2023-12-24T17:43:11.595Z,101810.25
2023-12-24T17:45:43.584Z,101812.16
2023-12-24T17:48:19.810Z,101807.78
2023-12-24T17:50:53.076Z,101807.78
2023-12-24T17:53:23.671Z,101797.31
2023-12-24T17:55:54.413Z,101795.13
2023-12-24T17:58:24.967Z,101798.16
2023-12-24T18:00:55.568Z,101793.22
2023-12-24T18:03:26.555Z,101793.78
2023-12-24T18:05:57.617Z,101791.03
2023-12-24T18:08:28.581Z,101788.28
2023-12-24T18:10:59.184Z,101782.22
2023-12-24T18:13:29.829Z,101775.63
2023-12-24T18:16:00.323Z,101772.88
2023-12-24T18:18:32.396Z,101781.13
2023-12-24T18:21:03.447Z,101766.56
2023-12-24T18:23:33.991Z,101773.16
2023-12-24T18:26:06.472Z,101763.28
2023-12-24T18:28:37.370Z,101764.06
2023-12-24T18:31:08.071Z,101764.63
2023-12-24T18:33:39.309Z,101762.97
2023-12-24T18:36:10.257Z,101760.22
2023-12-24T18:41:12.904Z,101749.53
2023-12-24T18:43:43.412Z,101738.78
2023-12-24T18:46:13.975Z,101739.88
2023-12-24T18:48:44.513Z,101731.94
2023-12-24T18:51:17.129Z,101721.75
2023-12-24T18:56:31.750Z,101726.16
2023-12-24T18:59:02.577Z,101720.13
2023-12-24T19:01:33.201Z,101716.53
2023-12-24T19:04:04.053Z,101714.63
2023-12-24T19:06:38.757Z,101714.09
2023-12-24T19:09:10.434Z,101703.09
2023-12-24T19:11:40.900Z,101698.13
2023-12-24T19:14:11.456Z,101700.56
2023-12-24T19:16:42.025Z,101689.88
2023-12-24T19:19:12.604Z,101691.78
2023-12-24T19:21:43.213Z,101682.44
2023-12-24T19:24:13.745Z,101676.94
2023-12-24T19:26:45.714Z,101672.28
2023-12-24T19:29:16.359Z,101678.38
2023-12-24T19:31:47.032Z,101675.03
2023-12-24T19:34:17.717Z,101669.53
2023-12-24T19:36:49.793Z,101664.03
2023-12-24T19:39:20.275Z,101667.88
2023-12-24T19:41:50.848Z,101668.16
2023-12-24T19:44:21.439Z,101668.16
2023-12-24T19:46:52.027Z,101662.66
2023-12-24T19:49:22.534Z,101658.53
2023-12-24T19:51:53.305Z,101654.69
2023-12-24T19:54:23.848Z,101648.09
2023-12-24T19:56:54.577Z,101645.91
2023-12-24T19:59:25.202Z,101640.97
2023-12-24T20:01:55.713Z,101648.41
2023-12-24T20:04:26.293Z,101642.59
2023-12-24T20:06:56.908Z,101636.84
2023-12-24T20:09:27.477Z,101644.25
2023-12-24T20:11:58.302Z,101626.97
2023-12-24T20:14:28.944Z,101634.38
2023-12-24T20:16:59.760Z,101639.06
2023-12-24T20:19:30.606Z,101642.59
2023-12-24T20:22:01.212Z,101632.44
2023-12-24T20:24:32.072Z,101632.72
2023-12-24T20:27:02.950Z,101631.06
2023-12-24T20:29:34.109Z,101630.53
2023-12-24T20:32:04.760Z,101643.72
2023-12-24T20:34:35.302Z,101633.25
2023-12-24T20:37:06.090Z,101638.75
2023-12-24T20:39:36.592Z,101635.19
2023-12-24T20:42:07.758Z,101636.00
2023-12-24T20:44:43.143Z,101628.88
2023-12-24T20:47:13.764Z,101633.81
2023-12-24T20:49:44.444Z,101631.63
2023-12-24T20:52:15.235Z,101629.16
2023-12-24T20:54:48.229Z,101627.50
2023-12-24T20:57:18.964Z,101623.41
2023-12-24T20:59:51.350Z,101614.88
2023-12-24T21:02:22.245Z,101620.66
2023-12-24T21:04:53.596Z,101619.28
2023-12-24T21:07:24.032Z,101620.66
2023-12-24T21:09:55.743Z,101622.56
2023-12-24T21:12:27.448Z,101619.56
2023-12-24T21:14:58.074Z,101617.91
2023-12-24T21:17:28.868Z,101622.31
2023-12-24T21:19:59.879Z,101617.63
2023-12-24T21:22:30.409Z,101610.78
2023-12-24T21:25:01.929Z,101617.91
2023-12-24T21:27:32.745Z,101608.88
2023-12-24T21:30:03.389Z,101606.38
2023-12-24T21:32:34.041Z,101612.97
2023-12-24T21:35:04.987Z,101617.63
2023-12-24T21:37:35.518Z,101619.00
2023-12-24T22:26:23.378Z,101653.59
2023-12-24T22:28:53.957Z,101652.78
2023-12-24T22:31:30.716Z,101657.75
2023-12-24T22:50:34.809Z,101673.94
2023-12-24T22:53:06.417Z,101674.22
2023-12-24T22:55:36.945Z,101677.53
2023-12-24T22:58:07.735Z,101685.50
2023-12-24T23:00:38.526Z,101682.19
2023-12-24T23:03:09.129Z,101690.44
2023-12-24T23:05:39.864Z,101693.13
2023-12-24T23:08:10.534Z,101701.94
2023-12-24T23:10:41.107Z,101696.72
2023-12-24T23:13:12.079Z,101700.81
2023-12-24T23:15:42.595Z,101700.25
2023-12-24T23:18:13.375Z,101697.78
2023-12-24T23:20:44.211Z,101708.47
2023-12-24T23:23:15.416Z,101712.88
2023-12-24T23:25:46.077Z,101717.56
2023-12-24T23:28:16.848Z,101722.22
2023-12-24T23:30:47.888Z,101728.25
2023-12-24T23:33:19.339Z,101725.78
2023-12-24T23:35:57.825Z,101728.25
2023-12-24T23:38:36.553Z,101722.75
2023-12-24T23:41:07.457Z,101725.50
2023-12-24T23:43:40.453Z,101740.88
2023-12-24T23:46:15.051Z,101738.69
2023-12-24T23:48:45.639Z,101749.34
2023-12-24T23:51:16.958Z,101751.00
2023-12-24T23:53:49.990Z,101749.09
2023-12-24T23:56:22.215Z,101752.41
2023-12-24T23:58:53.284Z,101754.59
